Time;durP1;ratioP1;P1;durP2;ratioP2;P2;SDS_P1;SDS_P2;PMS_P1;PMS_P2;Temp;Humidity;BMP_temperature;BMP_pressure;BME280_temperature;BME280_humidity;BME280_pressure;Samples;Min_cycle;Max_cycle;Signal;HPM_P1;HPM_P2
2024/03/21 00:00:35;;;;;;;6.87;4.10;;;8.60;18.10;;;;;;5056426;28;20436;-67
2024/03/21 00:03:00;;;;;;;5.07;3.53;;;8.50;18.60;;;;;;5055940;28;20235;-67
2024/03/21 00:05:30;;;;;;;8.13;3.57;;;8.50;18.10;;;;;;5053501;28;20408;-67
2024/03/21 00:07:55;;;;;;;4.97;3.17;;;8.40;18.20;;;;;;5054000;28;20701;-66
2024/03/21 00:10:22;;;;;;;6.07;3.20;;;8.30;18.60;;;;;;5055946;28;20426;-67
2024/03/21 00:12:50;;;;;;;4.30;3.17;;;8.20;19.10;;;;;;5056360;28;20164;-68
2024/03/21 00:15:16;;;;;;;4.10;2.50;;;8.10;19.60;;;;;;5057696;28;20434;-67
2024/03/21 00:17:43;;;;;;;4.97;3.23;;;8.00;21.10;;;;;;5055583;28;20472;-68
2024/03/21 00:20:10;;;;;;;6.30;3.17;;;7.90;22.00;;;;;;5054412;28;20411;-67
2024/03/21 00:22:43;;;;;;;5.23;3.37;;;7.90;21.60;;;;;;5052806;28;20427;-68
2024/03/21 00:25:09;;;;;;;3.90;2.80;;;7.80;21.90;;;;;;5069321;28;20827;-67
2024/03/21 00:27:36;;;;;;;4.83;2.90;;;7.80;22.30;;;;;;5053451;28;20447;-68
2024/03/21 00:30:03;;;;;;;4.53;2.67;;;7.80;23.50;;;;;;5053891;28;21025;-67
2024/03/21 00:32:28;;;;;;;3.83;2.90;;;7.70;24.00;;;;;;5053616;28;20519;-67
2024/03/21 00:34:54;;;;;;;3.90;2.93;;;7.70;24.70;;;;;;5053775;28;20762;-68
2024/03/21 00:37:21;;;;;;;5.00;3.00;;;7.70;24.60;;;;;;5054333;28;20256;-68
2024/03/21 00:39:48;;;;;;;3.93;2.43;;;7.60;25.20;;;;;;5054903;28;20428;-67
2024/03/21 00:42:15;;;;;;;4.00;2.90;;;7.60;25.30;;;;;;5056119;28;20477;-67
2024/03/21 00:44:41;;;;;;;3.37;3.03;;;7.60;25.90;;;;;;5055499;28;20480;-67
2024/03/21 00:47:07;;;;;;;7.03;3.90;;;7.50;25.90;;;;;;5055082;28;20423;-67
2024/03/21 00:49:33;;;;;;;7.77;4.53;;;7.50;26.10;;;;;;5054804;28;20457;-67
2024/03/21 00:51:59;;;;;;;5.80;4.33;;;7.50;26.10;;;;;;5055197;28;20480;-67
2024/03/21 00:54:25;;;;;;;6.50;3.60;;;7.50;25.80;;;;;;5053266;28;20505;-67
2024/03/21 00:56:51;;;;;;;6.60;4.23;;;7.50;26.60;;;;;;5052052;28;20198;-67
2024/03/21 00:59:16;;;;;;;7.30;4.00;;;7.50;26.80;;;;;;5053675;28;20612;-67
2024/03/21 01:01:42;;;;;;;5.90;3.27;;;7.50;26.40;;;;;;5052892;28;20177;-68
2024/03/21 01:04:07;;;;;;;4.27;2.93;;;7.50;26.40;;;;;;5055162;28;20228;-67
2024/03/21 01:06:34;;;;;;;7.00;4.47;;;7.50;26.40;;;;;;5053185;28;20176;-68
2024/03/21 01:08:59;;;;;;;5.90;3.63;;;7.40;26.40;;;;;;5055217;28;20215;-67
2024/03/21 01:11:25;;;;;;;4.20;2.80;;;7.50;26.70;;;;;;5054740;28;20480;-67
2024/03/21 01:13:50;;;;;;;7.13;3.50;;;7.50;25.00;;;;;;5052959;28;20224;-69
2024/03/21 01:16:16;;;;;;;4.43;3.00;;;7.50;25.80;;;;;;5052139;28;20184;-67
2024/03/21 01:18:42;;;;;;;3.93;2.60;;;7.50;25.20;;;;;;5053172;28;20237;-69
2024/03/21 01:21:08;;;;;;;5.30;3.13;;;7.50;25.90;;;;;;5053658;28;20426;-67
2024/03/21 01:23:34;;;;;;;7.10;3.57;;;7.50;25.90;;;;;;5054266;28;20228;-66
2024/03/21 01:26:01;;;;;;;4.20;3.00;;;7.50;25.50;;;;;;5053441;28;20779;-67
2024/03/21 01:28:27;;;;;;;4.33;2.80;;;7.60;25.90;;;;;;5052980;28;20523;-66
2024/03/21 01:30:53;;;;;;;4.30;3.00;;;7.60;25.00;;;;;;5052873;28;20424;-67
2024/03/21 01:33:18;;;;;;;6.60;3.50;;;7.60;24.50;;;;;;5052664;28;20417;-66
2024/03/21 01:35:44;;;;;;;6.80;3.40;;;7.60;24.30;;;;;;5054346;28;20317;-67
2024/03/21 01:38:10;;;;;;;5.00;3.03;;;7.60;24.60;;;;;;5053050;28;20215;-66
2024/03/21 01:40:37;;;;;;;4.97;3.10;;;7.60;25.00;;;;;;5054750;28;20821;-67
2024/03/21 01:43:17;;;;;;;3.57;2.77;;;7.50;24.90;;;;;;5056222;28;20525;-68
2024/03/21 01:45:44;;;;;;;4.80;3.37;;;7.50;25.10;;;;;;5054721;28;20475;-69
2024/03/21 01:48:10;;;;;;;2.80;2.20;;;7.50;25.40;;;;;;5055409;28;20469;-68
2024/03/21 01:50:35;;;;;;;6.20;3.80;;;7.50;24.60;;;;;;5056025;28;20478;-69
2024/03/21 01:53:01;;;;;;;3.33;2.53;;;7.60;24.50;;;;;;5056019;28;20180;-69
2024/03/21 01:55:26;;;;;;;3.80;3.00;;;7.50;25.90;;;;;;5056268;28;20173;-67
2024/03/21 01:57:52;;;;;;;4.33;2.40;;;7.60;24.90;;;;;;5054568;28;20276;-68
2024/03/21 02:00:18;;;;;;;3.47;2.57;;;7.60;25.50;;;;;;5068779;28;20187;-68
2024/03/21 02:02:43;;;;;;;5.43;3.43;;;7.70;26.00;;;;;;5053486;28;20180;-68
2024/03/21 02:05:09;;;;;;;4.60;2.93;;;7.70;25.60;;;;;;5053425;28;20185;-67
2024/03/21 02:07:34;;;;;;;4.40;2.43;;;7.80;25.70;;;;;;5054278;28;20604;-67
2024/03/21 02:10:00;;;;;;;3.80;2.30;;;7.80;25.30;;;;;;5055295;28;20172;-68
2024/03/21 02:12:47;;;;;;;3.87;2.97;;;7.90;24.40;;;;;;5057188;28;20177;-68
2024/03/21 02:15:13;;;;;;;4.50;2.90;;;8.00;23.60;;;;;;5056672;28;20272;-67
2024/03/21 02:17:39;;;;;;;4.07;2.77;;;8.00;23.80;;;;;;5056645;28;20467;-66
2024/03/21 02:20:06;;;;;;;4.33;2.60;;;8.00;22.60;;;;;;5057562;28;20169;-68
2024/03/21 02:22:37;;;;;;;4.60;2.77;;;8.00;23.40;;;;;;5057331;28;20722;-68
2024/03/21 02:25:09;;;;;;;4.77;3.23;;;8.10;23.50;;;;;;5055989;28;20414;-67
2024/03/21 02:27:36;;;;;;;4.30;2.57;;;8.10;22.60;;;;;;5057240;28;20428;-67
2024/03/21 02:30:02;;;;;;;3.33;2.40;;;8.10;22.40;;;;;;5064192;28;20498;-68
2024/03/21 02:32:30;;;;;;;3.80;2.80;;;8.20;22.20;;;;;;5059312;28;20501;-68
2024/03/21 02:34:55;;;;;;;3.50;2.40;;;8.20;22.50;;;;;;5058544;28;20666;-68
2024/03/21 02:37:21;;;;;;;4.90;3.67;;;8.20;22.20;;;;;;5058102;28;20415;-68
2024/03/21 02:39:51;;;;;;;4.23;3.03;;;8.20;21.80;;;;;;5077975;23;20707;-69
2024/03/21 02:42:17;;;;;;;4.10;3.23;;;8.30;22.20;;;;;;5055530;28;20416;-68
2024/03/21 02:44:43;;;;;;;3.57;2.70;;;8.30;22.20;;;;;;5055533;28;20423;-68
2024/03/21 02:47:08;;;;;;;4.53;2.60;;;8.30;22.00;;;;;;5055394;28;20711;-68
2024/03/21 02:49:34;;;;;;;3.80;2.87;;;8.30;21.80;;;;;;5055363;28;20733;-69
2024/03/21 02:51:59;;;;;;;4.60;3.07;;;8.40;21.50;;;;;;5055315;28;20184;-69
2024/03/21 02:54:25;;;;;;;3.97;2.57;;;8.40;21.00;;;;;;5037341;28;20268;-68
2024/03/21 02:56:51;;;;;;;3.70;2.80;;;8.50;20.60;;;;;;5055301;28;20205;-68
2024/03/21 02:59:16;;;;;;;3.20;1.97;;;8.50;20.20;;;;;;5055377;28;20452;-68
2024/03/21 03:01:42;;;;;;;5.50;3.03;;;8.50;20.10;;;;;;5055719;28;20256;-68
2024/03/21 03:04:10;;;;;;;5.03;2.90;;;8.50;21.20;;;;;;5054964;28;20177;-69
2024/03/21 03:06:36;;;;;;;5.17;2.40;;;8.50;21.30;;;;;;5055025;28;20171;-68
2024/03/21 03:09:02;;;;;;;4.40;2.50;;;8.50;20.70;;;;;;5054832;28;20546;-67
2024/03/21 03:11:28;;;;;;;4.60;3.40;;;8.60;21.10;;;;;;5055083;28;20170;-68
2024/03/21 03:13:53;;;;;;;3.73;2.43;;;8.60;19.90;;;;;;5036912;28;20428;-68
2024/03/21 03:16:19;;;;;;;7.57;3.87;;;8.60;20.20;;;;;;5054637;28;20184;-67
2024/03/21 03:18:44;;;;;;;4.97;2.63;;;8.60;20.40;;;;;;5054965;28;20192;-68
2024/03/21 03:21:10;;;;;;;3.20;2.50;;;8.60;20.50;;;;;;5054656;28;20189;-69
2024/03/21 03:23:35;;;;;;;5.33;2.77;;;8.60;20.30;;;;;;5036799;28;20596;-69
2024/03/21 03:26:01;;;;;;;5.57;3.57;;;8.70;19.70;;;;;;5054589;28;20184;-69
2024/03/21 03:28:26;;;;;;;4.93;3.07;;;8.70;19.80;;;;;;5054497;28;20739;-69
2024/03/21 03:30:52;;;;;;;2.67;2.27;;;8.80;20.50;;;;;;5054720;28;20181;-69
2024/03/21 03:36:01;;;;;;;3.40;2.50;;;8.80;19.80;;;;;;5054543;28;20187;-68
2024/03/21 03:38:27;;;;;;;6.10;3.27;;;8.80;19.20;;;;;;5053939;28;20542;-68
2024/03/21 03:40:53;;;;;;;7.00;3.27;;;8.90;18.80;;;;;;5054350;28;20188;-69
2024/03/21 03:43:18;;;;;;;5.17;2.93;;;8.90;19.40;;;;;;5054527;28;20680;-70
2024/03/21 03:45:44;;;;;;;4.13;2.80;;;9.00;18.60;;;;;;5054344;28;20182;-69
2024/03/21 03:48:10;;;;;;;3.27;2.87;;;9.00;18.40;;;;;;5053955;28;20277;-70
2024/03/21 03:50:36;;;;;;;3.63;2.47;;;9.10;18.50;;;;;;5054387;28;20421;-69
2024/03/21 03:53:01;;;;;;;3.60;2.97;;;9.10;18.50;;;;;;5054314;28;20202;-69
2024/03/21 03:55:27;;;;;;;4.10;2.93;;;9.00;18.40;;;;;;5054505;28;20186;-69
2024/03/21 03:57:52;;;;;;;3.97;2.80;;;9.00;18.40;;;;;;5053938;28;20235;-68
2024/03/21 04:00:20;;;;;;;5.20;2.93;;;9.10;18.50;;;;;;5054148;28;20255;-68
2024/03/21 04:02:46;;;;;;;4.47;3.00;;;9.10;18.40;;;;;;5053991;28;20177;-68
2024/03/21 04:05:15;;;;;;;3.87;2.60;;;9.10;18.50;;;;;;5053866;28;20916;-68
2024/03/21 04:07:40;;;;;;;6.80;3.50;;;9.10;18.50;;;;;;5053641;28;20192;-69
2024/03/21 04:10:06;;;;;;;4.70;3.20;;;9.20;18.20;;;;;;5053809;28;21031;-68
2024/03/21 04:12:32;;;;;;;4.30;2.57;;;9.20;17.40;;;;;;5053829;28;20178;-68
2024/03/21 04:14:58;;;;;;;7.70;3.40;;;9.30;15.90;;;;;;5035763;28;20471;-68
2024/03/21 04:17:24;;;;;;;4.07;2.67;;;9.30;16.70;;;;;;5054010;28;20446;-67
2024/03/21 04:19:49;;;;;;;5.70;3.57;;;9.30;15.40;;;;;;5053631;28;20206;-68
2024/03/21 04:22:15;;;;;;;8.40;4.03;;;9.30;15.20;;;;;;5053893;28;20539;-68
2024/03/21 04:24:41;;;;;;;5.53;3.50;;;9.30;15.00;;;;;;5053888;28;20260;-70
2024/03/21 04:27:08;;;;;;;4.53;2.90;;;9.40;14.40;;;;;;5053417;28;20216;-69
2024/03/21 04:29:34;;;;;;;5.07;3.27;;;9.40;15.00;;;;;;5053480;28;20464;-69
2024/03/21 04:31:59;;;;;;;6.40;3.47;;;9.40;14.90;;;;;;5053567;28;20417;-68
2024/03/21 04:34:25;;;;;;;5.90;3.30;;;9.40;14.60;;;;;;5053591;28;20178;-69
2024/03/21 04:36:51;;;;;;;7.33;3.10;;;9.40;14.40;;;;;;5053261;28;20202;-69
2024/03/21 04:39:17;;;;;;;4.30;2.63;;;9.40;14.40;;;;;;5053062;28;20213;-70
2024/03/21 04:41:42;;;;;;;7.23;3.27;;;9.30;15.00;;;;;;5053358;28;20917;-68
2024/03/21 04:44:08;;;;;;;4.40;2.90;;;9.30;14.90;;;;;;5053304;28;20548;-68
2024/03/21 04:46:33;;;;;;;5.83;3.30;;;9.30;14.80;;;;;;5052909;28;20178;-69
2024/03/21 04:48:59;;;;;;;6.17;3.27;;;9.40;15.40;;;;;;5053005;28;20214;-70
2024/03/21 04:51:24;;;;;;;7.97;3.77;;;9.30;15.50;;;;;;5052282;28;20613;-68
2024/03/21 04:53:50;;;;;;;3.80;2.30;;;9.40;15.40;;;;;;5053242;28;20178;-68
2024/03/21 04:56:16;;;;;;;5.77;2.87;;;9.30;15.50;;;;;;5034995;28;20207;-68
2024/03/21 04:58:42;;;;;;;5.47;3.10;;;9.30;16.60;;;;;;5052917;28;20467;-67
2024/03/21 05:01:08;;;;;;;4.37;3.13;;;9.30;17.50;;;;;;5035055;28;20228;-69
2024/03/21 05:03:33;;;;;;;5.80;3.40;;;9.40;16.10;;;;;;5034573;28;20595;-69
2024/03/21 05:05:59;;;;;;;4.97;3.17;;;9.40;16.20;;;;;;5052788;28;20596;-68
2024/03/21 05:08:25;;;;;;;3.10;2.50;;;9.40;16.90;;;;;;5052183;28;20751;-69
2024/03/21 05:10:51;;;;;;;4.57;3.40;;;9.40;16.40;;;;;;5052430;28;20178;-69
2024/03/21 05:13:16;;;;;;;3.93;2.90;;;9.50;25.50;;;;;;5052690;28;20910;-69
2024/03/21 05:15:49;;;;;;;4.17;3.03;;;9.50;25.80;;;;;;5052314;28;20186;-69
2024/03/21 05:18:15;;;;;;;3.80;2.60;;;9.40;26.60;;;;;;5034089;28;20284;-68
2024/03/21 05:20:40;;;;;;;4.70;3.10;;;9.40;27.00;;;;;;5052475;28;20961;-68
2024/03/21 05:23:06;;;;;;;4.93;3.17;;;9.50;27.10;;;;;;5052669;28;20182;-68
2024/03/21 05:25:34;;;;;;;5.10;3.27;;;9.40;27.10;;;;;;5052497;28;20186;-67
2024/03/21 05:28:00;;;;;;;3.80;2.53;;;9.40;28.30;;;;;;5052267;28;20217;-67
2024/03/21 05:30:26;;;;;;;4.53;3.10;;;9.30;28.50;;;;;;5052602;28;20421;-68
2024/03/21 05:32:52;;;;;;;3.90;2.77;;;9.30;28.50;;;;;;5052610;28;20178;-69
2024/03/21 05:35:17;;;;;;;7.50;3.40;;;9.30;28.50;;;;;;5052298;28;20175;-68
2024/03/21 05:37:43;;;;;;;6.57;4.43;;;9.40;29.10;;;;;;5051921;28;20178;-68
2024/03/21 05:40:09;;;;;;;5.90;3.50;;;9.40;19.80;;;;;;5052238;28;20190;-68
2024/03/21 05:42:35;;;;;;;5.90;3.23;;;9.40;18.80;;;;;;5052107;28;20174;-68
2024/03/21 05:45:01;;;;;;;3.80;2.90;;;9.50;18.80;;;;;;5052010;28;20508;-67
2024/03/21 05:47:26;;;;;;;7.70;3.30;;;9.60;19.00;;;;;;5052022;28;20405;-68
2024/03/21 05:49:52;;;;;;;6.70;2.93;;;9.70;18.30;;;;;;5068399;28;20286;-67
2024/03/21 05:52:18;;;;;;;5.90;3.47;;;9.80;20.40;;;;;;5072047;28;20590;-67
2024/03/21 05:54:50;;;;;;;4.70;3.50;;;10.00;15.30;;;;;;5072355;28;20197;-69
2024/03/21 05:57:17;;;;;;;5.33;3.10;;;10.10;14.90;;;;;;5054057;28;20424;-68
2024/03/21 05:59:43;;;;;;;6.63;4.20;;;10.20;14.20;;;;;;5054149;28;20452;-69
2024/03/21 06:02:08;;;;;;;6.47;3.00;;;10.10;14.10;;;;;;5072007;28;20412;-69
2024/03/21 06:04:35;;;;;;;8.70;4.20;;;10.20;14.20;;;;;;5053988;28;20464;-70
2024/03/21 06:07:01;;;;;;;4.77;3.50;;;10.30;14.20;;;;;;5054146;28;20656;-69
2024/03/21 06:09:29;;;;;;;6.83;4.20;;;10.30;13.60;;;;;;5072023;28;20512;-70
2024/03/21 06:11:54;;;;;;;7.77;5.00;;;10.30;14.60;;;;;;5072180;28;20441;-72
2024/03/21 06:14:20;;;;;;;10.47;5.20;;;10.20;15.40;;;;;;5072450;28;20883;-70
2024/03/21 06:16:46;;;;;;;6.93;4.97;;;10.20;16.50;;;;;;5071929;28;20178;-69
2024/03/21 06:19:11;;;;;;;10.30;4.27;;;10.20;18.50;;;;;;5053554;28;20201;-70
2024/03/21 06:21:37;;;;;;;6.37;4.30;;;10.40;17.80;;;;;;5053656;28;20177;-70
2024/03/21 06:24:03;;;;;;;7.60;4.87;;;10.50;17.70;;;;;;5071841;28;20198;-70
2024/03/21 06:26:28;;;;;;;5.87;4.40;;;10.50;17.10;;;;;;5070839;28;20184;-71
2024/03/21 06:28:54;;;;;;;7.53;4.60;;;10.60;17.00;;;;;;5071471;28;20224;-69
2024/03/21 06:31:19;;;;;;;5.83;4.33;;;10.70;25.80;;;;;;5071867;28;20193;-69
2024/03/21 06:33:45;;;;;;;5.70;3.57;;;10.70;18.90;;;;;;5053683;28;20182;-70
2024/03/21 06:36:11;;;;;;;6.57;3.87;;;;;;;;;;5053515;28;20173;-69
2024/03/21 06:38:37;;;;;;;5.37;3.50;;;;;;;;;;5071279;28;20218;-69
2024/03/21 06:41:03;;;;;;;3.43;2.60;;;;;;;;;;5047361;28;21314;-70
2024/03/21 06:43:29;;;;;;;5.50;3.60;;;;;;;;;;5021928;28;20951;-70
2024/03/21 06:45:58;;;;;;;3.90;2.87;;;11.30;13.90;;;;;;5046763;28;20468;-70
2024/03/21 06:48:24;;;;;;;4.57;3.13;;;;;;;;;;5050787;28;20542;-70
2024/03/21 06:50:51;;;;;;;5.73;2.77;;;;;;;;;;5049906;28;20488;-70
2024/03/21 06:53:17;;;;;;;4.00;3.07;;;;;;;;;;5049472;28;20433;-70
2024/03/21 06:55:42;;;;;;;4.70;2.60;;;12.00;10.60;;;;;;5031227;28;20434;-70
2024/03/21 06:58:08;;;;;;;5.40;4.63;;;;;;;;;;5050684;28;20456;-70
2024/03/21 07:00:35;;;;;;;3.13;2.63;;;;;;;;;;5049257;28;20194;-70
2024/03/21 07:03:04;;;;;;;5.23;2.30;;;;;;;;;;5032893;28;20422;-70
2024/03/21 07:05:29;;;;;;;7.67;3.07;;;;;;;;;;5048210;28;20550;-71
2024/03/21 07:07:55;;;;;;;4.00;2.80;;;;;;;;;;5049638;28;20559;-71
2024/03/21 07:10:22;;;;;;;4.90;2.40;;;;;;;;;;5025829;28;20463;-69
2024/03/21 07:12:48;;;;;;;7.83;1.97;;;;;;;;;;5045849;28;20491;-70
2024/03/21 07:15:16;;;;;;;4.50;2.40;;;;;;;;;;5046042;28;20972;-69
2024/03/21 07:17:42;;;;;;;3.50;2.50;;;12.70;35.80;;;;;;5054485;28;20415;-71
2024/03/21 07:20:10;;;;;;;6.80;2.63;;;12.70;33.30;;;;;;5054605;28;20505;-66
2024/03/21 07:22:37;;;;;;;4.53;3.03;;;12.80;29.90;;;;;;5051551;28;20922;-68
2024/03/21 07:25:03;;;;;;;3.33;2.27;;;12.90;28.30;;;;;;5056727;28;20862;-74
2024/03/21 07:27:29;;;;;;;4.87;2.40;;;12.90;28.10;;;;;;5054902;28;20451;-69
2024/03/21 07:29:55;;;;;;;5.03;2.17;;;12.90;27.10;;;;;;5039005;28;20984;-69
2024/03/21 07:32:20;;;;;;;5.50;3.10;;;12.90;27.10;;;;;;5055355;28;20525;-68
2024/03/21 07:34:50;;;;;;;4.00;3.00;;;12.90;7.20;;;;;;5056551;28;20421;-68
2024/03/21 07:37:15;;;;;;;6.73;2.53;;;12.90;7.70;;;;;;5017429;28;20184;-67
2024/03/21 07:39:41;;;;;;;5.53;2.60;;;12.80;8.80;;;;;;5035365;28;20828;-68
2024/03/21 07:42:07;;;;;;;4.33;2.73;;;12.80;8.70;;;;;;5051241;28;20184;-70
2024/03/21 07:44:33;;;;;;;3.33;2.53;;;12.70;9.30;;;;;;5054833;28;20190;-67
2024/03/21 07:46:58;;;;;;;3.70;2.87;;;12.70;9.90;;;;;;5054434;28;20925;-67
2024/03/21 07:49:24;;;;;;;3.83;2.93;;;12.80;10.50;;;;;;5054662;28;20210;-66
2024/03/21 07:51:51;;;;;;;4.57;2.80;;;12.70;9.70;;;;;;5037390;28;20199;-67
2024/03/21 07:54:17;;;;;;;4.00;2.10;;;12.70;10.40;;;;;;5054194;28;20185;-67
2024/03/21 07:56:42;;;;;;;4.10;2.00;;;12.90;10.70;;;;;;5054330;28;20432;-68
2024/03/21 07:59:08;;;;;;;6.10;3.40;;;13.00;8.90;;;;;;5054738;28;20200;-71
2024/03/21 08:01:34;;;;;;;3.77;2.67;;;13.20;8.30;;;;;;5054700;28;20190;-70
2024/03/21 08:04:04;;;;;;;12.87;3.00;;;13.50;7.60;;;;;;5054612;28;20708;-70
2024/03/21 08:06:31;;;;;;;3.50;2.63;;;13.70;6.80;;;;;;5053869;28;20534;-70
2024/03/21 08:08:57;;;;;;;3.90;3.10;;;13.90;5.40;;;;;;5053783;28;20541;-70
2024/03/21 08:11:23;;;;;;;8.17;3.00;;;14.10;5.20;;;;;;5053906;28;20505;-71
2024/03/21 08:13:48;;;;;;;5.90;3.43;;;14.40;1.60;;;;;;5053919;28;20470;-73
2024/03/21 08:16:14;;;;;;;3.83;2.70;;;14.40;1.50;;;;;;5053690;28;20175;-72
2024/03/21 08:18:39;;;;;;;6.80;3.00;;;14.60;1.40;;;;;;5053992;28;20210;-70
2024/03/21 08:21:05;;;;;;;6.40;2.50;;;14.80;1.00;;;;;;5035904;28;20182;-70
2024/03/21 08:23:31;;;;;;;3.47;2.30;;;14.70;1.00;;;;;;5053713;28;20182;-71
2024/03/21 08:26:03;;;;;;;4.10;2.73;;;14.90;1.00;;;;;;5035507;28;20658;-70
2024/03/21 08:28:30;;;;;;;3.27;2.33;;;;;;;;;;5053379;28;20218;-71
2024/03/21 08:30:56;;;;;;;4.40;2.47;;;;;;;;;;5053876;28;20413;-70
2024/03/21 08:33:23;;;;;;;3.23;2.43;;;;;;;;;;5053651;28;20782;-70
2024/03/21 08:35:49;;;;;;;3.80;2.13;;;15.60;1.00;;;;;;5053569;28;21054;-70
2024/03/21 08:38:14;;;;;;;5.27;2.33;;;15.50;1.00;;;;;;5057997;23;20514;-68
2024/03/21 08:40:48;;;;;;;5.30;2.50;;;15.40;1.00;;;;;;5060357;28;20497;-68
2024/03/21 08:43:13;;;;;;;7.47;3.03;;;15.20;1.00;;;;;;5059638;28;20198;-68
2024/03/21 08:45:39;;;;;;;3.60;2.57;;;15.10;1.00;;;;;;5059330;28;20417;-68
2024/03/21 08:48:04;;;;;;;5.33;2.37;;;15.10;1.00;;;;;;5058339;28;20209;-68
2024/03/21 08:50:30;;;;;;;5.53;2.70;;;15.20;1.00;;;;;;5058832;28;20171;-68
2024/03/21 08:52:57;;;;;;;5.17;2.63;;;15.50;1.00;;;;;;5058115;28;20502;-66
2024/03/21 08:55:22;;;;;;;4.50;3.20;;;15.80;1.00;;;;;;5058389;28;20178;-67
2024/03/21 08:57:49;;;;;;;5.83;3.30;;;15.90;1.00;;;;;;5041434;28;20413;-68
2024/03/21 09:00:15;;;;;;;3.73;2.20;;;15.50;1.00;;;;;;5041462;28;20221;-67
2024/03/21 09:02:41;;;;;;;3.93;2.87;;;15.50;1.00;;;;;;5041225;28;20425;-67
2024/03/21 09:05:07;;;;;;;8.23;2.63;;;15.70;1.00;;;;;;5039147;28;20989;-67
2024/03/21 09:07:32;;;;;;;4.47;2.53;;;15.70;1.00;;;;;;5057207;28;20349;-67
2024/03/21 09:09:58;;;;;;;4.50;3.00;;;15.70;1.00;;;;;;5056613;28;20222;-68
2024/03/21 09:12:23;;;;;;;4.30;2.87;;;15.90;1.00;;;;;;5057120;28;20178;-67
2024/03/21 09:14:49;;;;;;;2.87;2.27;;;15.80;1.00;;;;;;5038758;28;20284;-68
2024/03/21 09:17:14;;;;;;;3.17;2.03;;;15.80;1.00;;;;;;5057709;28;20205;-68
2024/03/21 09:19:40;;;;;;;3.27;2.50;;;15.90;1.00;;;;;;5058202;28;20194;-67
2024/03/21 09:22:06;;;;;;;4.57;2.33;;;15.60;1.00;;;;;;5058112;28;20174;-66
2024/03/21 09:24:31;;;;;;;3.47;2.80;;;15.50;1.00;;;;;;5058308;28;20175;-67
2024/03/21 09:26:57;;;;;;;5.07;2.77;;;15.60;1.00;;;;;;5058426;28;20613;-67
2024/03/21 09:29:24;;;;;;;4.77;2.87;;;15.50;1.00;;;;;;5058611;28;20210;-68
2024/03/21 09:31:49;;;;;;;3.40;2.70;;;15.30;1.00;;;;;;5058627;28;20413;-68
2024/03/21 09:34:15;;;;;;;4.10;2.87;;;15.40;1.00;;;;;;5058602;28;20411;-68
2024/03/21 09:36:40;;;;;;;5.33;2.00;;;15.40;1.00;;;;;;5057476;28;20192;-68
2024/03/21 09:39:06;;;;;;;3.20;2.73;;;15.50;1.00;;;;;;5058543;28;20646;-70
2024/03/21 09:41:32;;;;;;;5.20;3.40;;;15.40;1.00;;;;;;5058402;28;20171;-67
2024/03/21 09:44:01;;;;;;;4.60;2.70;;;15.80;1.00;;;;;;5058591;28;20452;-66
2024/03/21 09:46:30;;;;;;;5.53;3.20;;;15.80;1.00;;;;;;5059663;28;20522;-67
2024/03/21 09:48:55;;;;;;;5.70;3.50;;;16.10;1.00;;;;;;5059552;28;20484;-68
2024/03/21 09:51:25;;;;;;;2.80;2.40;;;16.50;1.00;;;;;;5058404;28;20460;-68
2024/03/21 09:53:51;;;;;;;4.70;3.77;;;16.80;1.00;;;;;;5056900;28;20661;-68
2024/03/21 09:56:18;;;;;;;3.83;3.07;;;16.70;1.00;;;;;;5057318;28;20409;-68
2024/03/21 09:58:47;;;;;;;3.77;3.10;;;16.90;1.00;;;;;;5056804;28;20445;-68
2024/03/21 10:01:23;;;;;;;4.23;2.70;;;16.90;1.00;;;;;;5057055;28;20767;-67
2024/03/21 10:03:53;;;;;;;7.53;2.17;;;16.90;1.00;;;;;;5057352;28;20895;-67
2024/03/21 10:06:19;;;;;;;9.63;2.80;;;16.80;1.00;;;;;;5058615;28;20503;-67
2024/03/21 10:08:45;;;;;;;4.60;3.00;;;16.80;1.00;;;;;;5058769;28;20492;-69
2024/03/21 10:11:11;;;;;;;5.23;2.90;;;16.80;1.00;;;;;;5055905;28;20421;-67
2024/03/21 10:13:41;;;;;;;5.83;3.53;;;16.90;1.00;;;;;;5056366;28;20475;-69
2024/03/21 10:16:11;;;;;;;8.77;3.80;;;16.60;1.00;;;;;;5056385;28;20618;-67
2024/03/21 10:18:39;;;;;;;4.17;3.70;;;16.70;1.00;;;;;;5037038;28;20823;-67
2024/03/21 10:21:12;;;;;;;6.33;3.43;;;17.00;1.00;;;;;;5037284;28;20465;-67
2024/03/21 10:23:38;;;;;;;6.27;4.00;;;17.40;1.00;;;;;;5054761;28;20416;-67
2024/03/21 10:26:04;;;;;;;3.57;2.50;;;17.70;1.00;;;;;;5055577;28;20544;-67
2024/03/21 10:28:30;;;;;;;5.03;4.10;;;17.40;1.00;;;;;;5055941;28;20488;-68
2024/03/21 10:30:55;;;;;;;5.90;3.90;;;17.00;1.00;;;;;;5056095;28;20417;-67
2024/03/21 10:33:23;;;;;;;4.00;3.40;;;16.90;1.00;;;;;;5037433;28;20186;-67
2024/03/21 10:35:49;;;;;;;4.93;3.43;;;17.10;1.00;;;;;;5056031;28;20175;-67
2024/03/21 10:38:15;;;;;;;4.80;3.00;;;17.30;1.00;;;;;;5057460;28;20481;-67
2024/03/21 10:40:54;;;;;;;6.13;3.50;;;17.40;1.00;;;;;;5056928;28;20186;-67
2024/03/21 10:43:22;;;;;;;4.07;3.67;;;17.50;1.00;;;;;;5056656;28;20404;-69
2024/03/21 10:45:48;;;;;;;5.80;4.53;;;17.30;1.00;;;;;;5057418;28;20424;-66
2024/03/21 10:48:29;;;;;;;6.43;4.20;;;17.50;1.00;;;;;;5055991;28;20452;-67
2024/03/21 10:50:55;;;;;;;4.23;3.80;;;17.70;1.00;;;;;;5060455;28;20426;-67
2024/03/21 10:53:21;;;;;;;6.00;4.57;;;17.60;1.00;;;;;;5041750;28;20496;-68
2024/03/21 10:55:51;;;;;;;5.37;3.97;;;17.80;1.00;;;;;;5058315;28;20171;-66
2024/03/21 10:58:19;;;;;;;5.00;3.37;;;18.30;1.00;;;;;;5040694;28;20448;-67
2024/03/21 11:00:54;;;;;;;5.03;3.37;;;18.50;1.00;;;;;;5059206;28;20412;-69
2024/03/21 11:03:20;;;;;;;10.87;4.10;;;18.50;1.00;;;;;;5058785;28;20500;-67
2024/03/21 11:05:56;;;;;;;4.40;3.57;;;18.50;1.00;;;;;;5059643;28;20413;-67
2024/03/21 11:08:28;;;;;;;4.70;3.37;;;18.80;1.00;;;;;;5059126;28;20459;-67
2024/03/21 11:10:55;;;;;;;3.93;3.40;;;19.20;1.00;;;;;;5060642;28;20731;-66
2024/03/21 11:13:25;;;;;;;4.20;3.43;;;19.10;1.00;;;;;;5060626;28;20400;-72
2024/03/21 11:15:55;;;;;;;7.30;4.77;;;18.70;1.00;;;;;;5060649;28;20892;-68
2024/03/21 11:18:21;;;;;;;5.77;4.27;;;18.30;1.00;;;;;;5061014;28;20483;-67
2024/03/21 11:20:47;;;;;;;4.60;3.87;;;18.20;1.00;;;;;;5060748;28;20487;-67
2024/03/21 11:23:15;;;;;;;4.93;3.67;;;18.40;1.00;;;;;;5060388;28;20428;-68
2024/03/21 11:25:41;;;;;;;5.83;3.90;;;18.60;1.00;;;;;;5060723;28;20499;-67
2024/03/21 11:28:11;;;;;;;5.13;4.50;;;18.50;1.00;;;;;;5060612;28;20459;-67
2024/03/21 11:30:44;;;;;;;6.37;3.83;;;18.70;1.00;;;;;;5060704;28;20414;-68
2024/03/21 11:33:10;;;;;;;5.80;4.00;;;19.00;1.00;;;;;;5060893;28;20916;-68
2024/03/21 11:35:40;;;;;;;5.33;3.80;;;19.10;1.00;;;;;;5043459;28;20417;-67
2024/03/21 11:38:07;;;;;;;4.77;3.90;;;19.00;1.00;;;;;;5060958;28;20523;-67
2024/03/21 11:40:34;;;;;;;4.83;3.60;;;18.90;1.00;;;;;;5060454;28;20451;-67
2024/03/21 11:43:07;;;;;;;4.00;3.60;;;18.80;1.00;;;;;;5060175;28;20471;-68
2024/03/21 11:45:35;;;;;;;4.73;2.93;;;19.00;1.00;;;;;;5058536;28;20421;-68
2024/03/21 11:48:27;;;;;;;6.67;3.53;;;18.70;1.00;;;;;;5060013;28;20453;-67
2024/03/21 11:50:56;;;;;;;3.97;3.53;;;18.40;1.00;;;;;;5057346;28;20444;-69
2024/03/21 11:53:22;;;;;;;3.10;2.80;;;18.30;1.00;;;;;;5040854;28;20421;-67
2024/03/21 11:55:48;;;;;;;8.40;3.60;;;18.30;1.00;;;;;;5058189;28;20908;-67
2024/03/21 11:58:14;;;;;;;4.80;3.60;;;18.50;1.00;;;;;;5040030;28;20611;-67
2024/03/21 12:00:40;;;;;;;3.50;3.20;;;18.50;1.00;;;;;;5057620;28;20496;-68
2024/03/21 12:03:10;;;;;;;4.50;3.50;;;18.60;1.00;;;;;;5058335;28;20486;-67
2024/03/21 12:05:36;;;;;;;4.17;3.10;;;18.80;1.00;;;;;;5058033;28;20171;-67
2024/03/21 12:08:02;;;;;;;5.13;4.00;;;18.90;1.00;;;;;;5057460;28;20476;-68
2024/03/21 12:10:27;;;;;;;5.03;3.10;;;19.20;1.00;;;;;;5058086;28;20483;-67
2024/03/21 12:12:53;;;;;;;4.43;3.43;;;19.70;1.00;;;;;;5040631;28;20271;-67
2024/03/21 12:15:18;;;;;;;6.70;3.40;;;19.80;1.00;;;;;;5058476;28;20257;-68
2024/03/21 12:17:44;;;;;;;3.60;3.30;;;19.70;1.00;;;;;;5058606;28;20590;-69
2024/03/21 12:20:10;;;;;;;4.33;3.80;;;19.80;1.00;;;;;;5039901;28;20210;-68
2024/03/21 12:22:36;;;;;;;3.43;3.13;;;19.60;1.00;;;;;;5058383;28;20320;-68
2024/03/21 12:25:02;;;;;;;3.27;2.97;;;;;;;;;;5057845;28;20433;-69
2024/03/21 12:27:27;;;;;;;3.73;3.40;;;18.80;1.00;;;;;;5056930;28;20170;-67
2024/03/21 12:29:53;;;;;;;6.83;4.07;;;18.90;1.00;;;;;;5058426;28;20533;-67
2024/03/21 12:32:18;;;;;;;3.40;3.10;;;18.90;1.00;;;;;;5060248;28;20660;-67
2024/03/21 12:34:44;;;;;;;3.10;2.80;;;19.00;1.00;;;;;;5059774;28;20262;-67
2024/03/21 12:37:12;;;;;;;3.80;3.43;;;19.20;1.00;;;;;;5058594;28;20596;-67
2024/03/21 12:39:39;;;;;;;7.67;3.40;;;19.10;1.00;;;;;;5057426;28;20249;-69
2024/03/21 12:42:12;;;;;;;3.53;3.23;;;19.10;1.00;;;;;;5056897;28;20424;-68
2024/03/21 12:44:38;;;;;;;4.23;3.20;;;;;;;;;;5058200;28;20424;-68
2024/03/21 12:47:03;;;;;;;3.20;2.60;;;18.70;1.00;;;;;;5058820;28;20774;-67
2024/03/21 12:49:29;;;;;;;3.50;3.20;;;18.70;1.00;;;;;;5058285;28;20486;-67
2024/03/21 12:51:54;;;;;;;3.40;2.83;;;19.20;1.00;;;;;;5059109;28;20661;-67
2024/03/21 12:54:20;;;;;;;4.27;3.37;;;19.40;1.00;;;;;;5040855;28;20630;-67
2024/03/21 12:56:46;;;;;;;3.73;3.33;;;19.40;1.00;;;;;;5058804;28;20193;-67
2024/03/21 12:59:11;;;;;;;3.67;3.37;;;19.60;1.00;;;;;;5058407;28;20195;-68
2024/03/21 13:01:37;;;;;;;8.50;4.07;;;19.50;1.00;;;;;;5058366;28;20448;-68